No data was retrieved for https://query.yahooapis.com/v1/public/yql?q=select+%2A+from+weather.forecast+where+woeid%3D860853&format=xml&u=c



Visit our other weather sites:

Template documentation
and downloads

And another site



Nearby METAR Reports

   
EBAW - Antwerp
Updated: 25-11-2020 22:20
Mostly Cloudy  
Mostly Cloudy  
   Wind: SSW 3.1 m/s
Wind: SSW 3.1 m/s
Temperature: 10°C
Wind Chill: 8°C
Dew Point: 6°C
Humidity: 76%
Barometer: 1018 hPa
Clouds: Mostly Cloudy
Visibility: More than 10 km
Cloud details: Mostly Cloudy 2800 ft
EBAW 252120Z 21006KT 9999 BKN028 10/06 Q1018 NOSIG
EBLG - Liège
Updated: 25-11-2020 22:20
Partly Cloudy  
Partly Cloudy  
   Wind: South 3.6 m/s
Wind: South 3.6 m/s
Temperature: 8°C
Wind Chill: 6°C
Dew Point: 5°C
Humidity: 82%
Barometer: 1019 hPa
Clouds: Partly Cloudy
Visibility: More than 10 km
Cloud details: Partly Cloudy 3800 ft
EBLG 252120Z 18007KT 9999 SCT038 08/05 Q1019 NOSIG
EBCV - Mons/Bergen
Updated: 25-11-2020 22:25
Clear  
Clear  
   Wind: South 3.6 m/s
Wind: South 3.6 m/s
Temperature: 7°C
Wind Chill: 4°C
Dew Point: 5°C
Humidity: 87%
Barometer: 1018 hPa
Clouds: Clear
Cloud details: Clear
EBCV 252125Z AUTO 18007KT //// NCD 07/05 Q1018
EHBK - Maastricht
Updated: 25-11-2020 22:25
Partly Cloudy  
Partly Cloudy  
   Wind: SSW 5.1 m/s
Wind: SSW 5.1 m/s
Temperature: 8°C
Wind Chill: 5°C
Dew Point: 5°C
Humidity: 82%
Barometer: 1018 hPa
Clouds: Partly Cloudy
Visibility: More than 10 km
Cloud details: Partly Cloudy
EHBK 252125Z AUTO 20010KT 9999 NSC 08/05 Q1018 NOSIG
ELLX - Luxemburg
Updated: 25-11-2020 22:20
Clear  
Clear  
   Wind: varies 0.5 m/s
Wind: varies 0.5 m/s
Temperature: 4°C
Dew Point: 3°C
Humidity: 93%
Barometer: 1020 hPa
Visibility: More than 10 km
Cloud details: Clear
ELLX 252120Z VRB01KT CAVOK 04/03 Q1020 NOSIG
EBOS - Oostende
Updated: 25-11-2020 22:20
Mostly Cloudy  
Mostly Cloudy  
   Wind: South 2.6 m/s
Wind: South 2.6 m/s
Temperature: 9°C
Wind Chill: 8°C
Dew Point: 7°C
Humidity: 87%
Barometer: 1018 hPa
Clouds: Mostly Cloudy
Visibility: 8 km
Cloud details: Few Clouds 2000 ft,
Mostly Cloudy 4800 ft
EBOS 252120Z 19005KT 8000 FEW020 BKN048 09/07 Q1018 NOSIG

Script developed by  Saratoga-weather.org Adapted for the template by  Weerstation Leuven

You find our weather info also at:

Weather Underground

Equipment we use:

Weather-station
Davis Vantage Vue

Weather-program
WeatherCat

Provider
one.com

Davis Vantage Vue

WeatherCat

one.com